Impacts METAR Board
IDs:

KSFO - San Francisco Intl, CA, US

Updated at: 0700 UTC 23 Oct 2018
Potential Impact None Slight Moderate High
Time 22/19Z 22/20Z 22/21Z 22/22Z 22/23Z 23/00Z 23/01Z 23/02Z 23/03Z 23/04Z 23/05Z 23/06Z 23/07Z
Temp60 62 63 63 61 61 59 56 56 55 56 54 54
Dewpt49 49 49 49 49 49 48 49 49 48 48 48 47
Altim29.97 29.95 29.94 29.92 29.92 29.92 29.92 29.94 29.95 29.96 29.97 29.97 29.97
VIS10 10 10 10 10 10 10 10 10 10 10 10 10
CIG-- -- -- -- -- -- -- -- -- -- -- -- --
CoverSCTFEWFEWFEWFEWFEWFEWFEWFEWFEWFEWFEWFEW
FltCatVFRVFRVFRVFRVFRVFRVFRVFRVFRVFRVFRVFRVFR
WX--------------------------
WDir300300290280290280280270260270270280250
WSpd6 10 14 14 17 14 15 13 10 10 7 7 3
WGst-- -- -- -- -- -- -- -- -- -- -- -- --
Raw hourly METARs
KSFO 221856Z 30006KT 10SM FEW010 SCT018 16/09 A2997 RMK AO2 SLP148 T01560094
KSFO 221956Z 30010KT 10SM FEW010 FEW018 17/09 A2995 RMK AO2 SLP143 T01670094
KSFO 222056Z 29014KT 10SM FEW017 17/09 A2994 RMK AO2 SLP137 T01720094 58017
KSFO 222156Z 28014KT 10SM FEW016 17/09 A2992 RMK AO2 SLP133 T01720094
KSFO 222256Z 29017KT 10SM FEW016 16/09 A2992 RMK AO2 SLP132 T01610094
KSFO 222356Z 28014KT 10SM FEW016 16/09 A2992 RMK AO2 SLP131 T01610094 10178 20144 56006
KSFO 230056Z 28015KT 10SM FEW018 15/09 A2992 RMK AO2 SLP132 T01500089
KSFO 230156Z 27013KT 10SM FEW021 13/09 A2994 RMK AO2 SLP139 T01330094
KSFO 230256Z 26010KT 10SM FEW021 13/09 A2995 RMK AO2 SLP143 T01330094 53012
KSFO 230356Z 27010KT 10SM FEW018 13/09 A2996 RMK AO2 SLP145 T01280089
KSFO 230456Z 27007KT 10SM FEW015 13/09 A2997 RMK AO2 SLP147 T01330089
KSFO 230556Z 28007KT 10SM FEW015 12/09 A2997 RMK AO2 SLP149 T01220089 10161 20122 51006
KSFO 230656Z 25003KT 10SM FEW015 12/08 A2997 RMK AO2 SLP147 T01220083



Page loaded:  07:26 UTC  |   12:26 AM Pacific  |   01:26 AM Mountain  |   02:26 AM Central  |   03:26 AM Eastern

 

ADVISORIES

FORECASTS

FORECASTS

OBSERVATIONS

USER TOOLS

ABOUT US